Time;durP1;ratioP1;P1;durP2;ratioP2;P2;SDS_P1;SDS_P2;PMS_P1;PMS_P2;Temp;Humidity;BMP_temperature;BMP_pressure;BME280_temperature;BME280_humidity;BME280_pressure;Samples;Min_cycle;Max_cycle;Signal;HPM_P1;HPM_P2
2021/12/16 00:06:55;;;;;;;52.65;28.58;;;9.30;99.90;;;;;;5073119;28;20201;-50
2021/12/16 00:09:15;;;;;;;58.83;30.85;;;9.30;99.90;;;;;;5072373;28;20696;-50
2021/12/16 00:33:36;;;;;;;59.72;31.33;;;9.40;99.90;;;;;;5072591;28;20197;-50
2021/12/16 00:36:04;;;;;;;59.25;31.23;;;9.40;99.90;;;;;;5072557;28;20174;-51
2021/12/16 00:38:32;;;;;;;62.33;31.55;;;9.40;99.90;;;;;;5072360;28;20166;-49
2021/12/16 00:40:59;;;;;;;63.08;30.85;;;9.40;99.90;;;;;;5072299;28;20586;-49
2021/12/16 00:43:34;;;;;;;65.13;30.80;;;9.40;99.90;;;;;;5072654;28;20178;-50
2021/12/16 00:54:19;;;;;;;63.97;32.05;;;9.30;99.90;;;;;;5021393;28;20217;-50
2021/12/16 00:56:53;;;;;;;56.63;30.17;;;9.30;99.90;;;;;;5072297;28;20170;-50
2021/12/16 00:59:20;;;;;;;55.35;30.80;;;9.40;99.90;;;;;;5072021;28;20189;-50
2021/12/16 01:01:56;;;;;;;54.92;30.55;;;9.30;99.90;;;;;;5072257;28;20205;-50
2021/12/16 01:34:34;;;;;;;57.70;31.33;;;9.40;99.90;;;;;;5071973;28;20252;-50
2021/12/16 01:37:36;;;;;;;60.65;30.02;;;9.40;99.90;;;;;;5071602;28;20599;-50
2021/12/16 01:45:30;;;;;;;58.45;30.38;;;9.40;99.90;;;;;;5071603;28;20177;-51
2021/12/16 01:50:52;;;;;;;57.00;29.42;;;9.40;99.90;;;;;;5071586;28;20533;-50
2021/12/16 01:53:48;;;;;;;60.25;30.38;;;9.40;99.90;;;;;;5075194;28;20198;-50
2021/12/16 01:56:59;;;;;;;65.70;31.60;;;9.40;99.90;;;;;;5075147;28;20188;-50
2021/12/16 01:59:02;;;;;;;61.08;30.90;;;9.40;99.90;;;;;;5069469;28;20265;-50
2021/12/16 02:01:31;;;;;;;61.45;30.48;;;9.40;99.90;;;;;;5075355;28;20188;-49
2021/12/16 02:04:16;;;;;;;61.38;31.40;;;9.40;99.90;;;;;;5075027;28;20165;-48
2021/12/16 02:07:00;;;;;;;65.30;32.42;;;9.40;99.90;;;;;;5075013;28;20223;-50
2021/12/16 02:28:48;;;;;;;57.92;28.58;;;9.30;99.90;;;;;;5075008;28;20176;-51
2021/12/16 02:31:28;;;;;;;59.67;29.17;;;9.40;99.90;;;;;;5074854;28;20307;-50
2021/12/16 02:36:45;;;;;;;68.95;30.90;;;9.30;99.90;;;;;;5074819;28;20165;-51
2021/12/16 02:39:19;;;;;;;65.80;32.20;;;9.30;99.90;;;;;;5074392;28;20169;-51
2021/12/16 02:41:48;;;;;;;58.78;31.80;;;9.30;99.90;;;;;;5074367;28;20198;-51
2021/12/16 02:49:30;;;;;;;65.20;32.63;;;9.30;99.90;;;;;;5074440;28;20530;-51
2021/12/16 02:51:57;;;;;;;65.90;31.60;;;9.30;99.90;;;;;;5074730;28;20537;-50
2021/12/16 02:54:24;;;;;;;62.08;31.58;;;9.30;99.90;;;;;;5074664;28;20669;-51
2021/12/16 02:56:50;;;;;;;70.38;32.42;;;9.20;99.90;;;;;;5072822;28;20540;-51
2021/12/16 02:59:19;;;;;;;66.32;31.30;;;9.30;99.90;;;;;;5074104;28;20183;-49
2021/12/16 03:01:48;;;;;;;65.93;30.83;;;9.20;99.90;;;;;;5074101;28;20188;-51
2021/12/16 03:04:16;;;;;;;61.72;31.20;;;9.30;99.90;;;;;;5074033;28;20220;-50
2021/12/16 03:06:45;;;;;;;61.50;31.42;;;9.20;99.90;;;;;;5074051;28;20201;-50
2021/12/16 03:09:14;;;;;;;63.45;31.60;;;9.30;99.90;;;;;;5073753;28;20197;-51
2021/12/16 03:12:04;;;;;;;66.60;33.42;;;9.20;99.90;;;;;;5073760;28;20576;-50
2021/12/16 03:14:40;;;;;;;62.60;32.55;;;9.30;99.90;;;;;;5073526;28;20210;-50
2021/12/16 03:17:18;;;;;;;64.53;32.78;;;9.30;99.90;;;;;;5073719;28;20276;-49
2021/12/16 03:22:52;;;;;;;65.10;32.63;;;9.30;99.90;;;;;;5073624;28;20261;-49
2021/12/16 03:33:30;;;;;;;64.57;32.30;;;9.20;99.90;;;;;;5073348;28;20517;-50
2021/12/16 03:36:08;;;;;;;67.55;33.05;;;9.20;99.90;;;;;;5073101;28;20231;-50
2021/12/16 03:38:37;;;;;;;66.15;33.45;;;9.20;99.90;;;;;;5073208;28;20255;-50
2021/12/16 03:41:05;;;;;;;66.85;32.75;;;9.20;99.90;;;;;;5073234;28;20162;-50
2021/12/16 03:43:33;;;;;;;65.80;32.97;;;9.20;99.90;;;;;;5073237;28;20614;-50
2021/12/16 03:49:03;;;;;;;64.57;31.25;;;9.10;99.90;;;;;;5072963;28;20166;-50
2021/12/16 03:52:06;;;;;;;64.45;31.20;;;9.10;99.90;;;;;;5073120;28;20637;-49
2021/12/16 03:54:38;;;;;;;69.90;32.25;;;9.10;99.90;;;;;;5065368;28;20221;-50
2021/12/16 03:57:07;;;;;;;67.53;32.20;;;9.10;99.90;;;;;;5072874;28;20653;-51
2021/12/16 03:59:34;;;;;;;70.15;32.72;;;9.10;99.90;;;;;;5073037;28;20162;-50
2021/12/16 04:02:06;;;;;;;64.18;30.67;;;9.10;99.90;;;;;;5072862;28;20618;-51
2021/12/16 04:04:33;;;;;;;64.70;31.70;;;9.10;99.90;;;;;;5072784;28;20261;-51
2021/12/16 04:06:58;;;;;;;69.15;32.20;;;9.10;99.90;;;;;;5072740;28;20166;-51
2021/12/16 04:09:24;;;;;;;72.38;33.72;;;9.10;99.90;;;;;;5072963;28;20546;-49
2021/12/16 04:12:02;;;;;;;70.68;34.17;;;9.10;99.90;;;;;;5072630;28;20167;-51
2021/12/16 04:14:28;;;;;;;63.10;32.45;;;9.10;99.90;;;;;;5071773;28;20563;-50
2021/12/16 04:16:55;;;;;;;69.25;33.63;;;9.10;99.90;;;;;;5073178;28;20170;-51
2021/12/16 04:19:25;;;;;;;69.68;32.92;;;9.10;99.90;;;;;;5072524;28;20244;-51
2021/12/16 04:21:59;;;;;;;66.30;31.98;;;9.10;99.90;;;;;;5071347;28;20499;-50
2021/12/16 04:24:25;;;;;;;65.40;30.63;;;9.10;99.90;;;;;;5073010;28;20208;-50
2021/12/16 04:26:52;;;;;;;69.95;34.03;;;9.00;99.90;;;;;;5072638;28;20574;-50
2021/12/16 04:29:18;;;;;;;65.20;33.45;;;9.00;99.90;;;;;;5072252;28;20174;-51
2021/12/16 04:31:45;;;;;;;65.72;32.75;;;9.00;99.90;;;;;;5072326;28;20568;-51
2021/12/16 04:34:11;;;;;;;70.72;34.67;;;9.10;99.90;;;;;;5072281;28;20246;-51
2021/12/16 04:36:39;;;;;;;78.00;34.83;;;9.10;99.90;;;;;;5072275;28;20236;-51
2021/12/16 04:39:13;;;;;;;68.50;32.67;;;9.10;99.90;;;;;;5072435;28;20173;-49
2021/12/16 04:41:40;;;;;;;60.92;31.52;;;9.10;99.90;;;;;;5072268;28;20158;-50
2021/12/16 04:44:15;;;;;;;69.35;35.15;;;9.10;99.90;;;;;;5072415;28;20178;-51
2021/12/16 04:46:41;;;;;;;66.25;32.92;;;9.10;99.90;;;;;;5072226;28;20162;-51
2021/12/16 04:49:09;;;;;;;60.38;31.95;;;9.00;99.90;;;;;;5070799;28;20529;-51
2021/12/16 04:51:40;;;;;;;61.20;30.65;;;9.00;99.90;;;;;;5072086;28;20176;-50
2021/12/16 04:54:07;;;;;;;59.88;33.17;;;9.00;99.90;;;;;;5072224;28;20312;-51
2021/12/16 04:56:35;;;;;;;70.03;32.17;;;9.00;99.90;;;;;;5071999;28;20158;-51
2021/12/16 04:59:08;;;;;;;73.00;34.03;;;9.00;99.90;;;;;;5072276;28;20170;-51
2021/12/16 05:01:34;;;;;;;64.50;32.45;;;9.00;99.90;;;;;;5072234;28;20178;-50
2021/12/16 05:04:00;;;;;;;68.65;33.70;;;8.90;99.90;;;;;;5070611;28;20630;-50
2021/12/16 05:06:26;;;;;;;66.05;31.70;;;8.90;99.90;;;;;;5072227;28;20166;-49
2021/12/16 05:08:51;;;;;;;64.82;32.97;;;8.90;99.90;;;;;;5071732;28;20178;-49
2021/12/16 05:11:17;;;;;;;65.70;32.13;;;8.90;99.90;;;;;;5071955;28;20635;-50
2021/12/16 05:13:44;;;;;;;69.43;31.60;;;8.90;99.90;;;;;;5072008;28;20197;-49
2021/12/16 05:16:10;;;;;;;67.68;34.20;;;8.90;99.90;;;;;;5071745;28;20166;-49
2021/12/16 05:18:38;;;;;;;66.57;33.92;;;8.90;99.90;;;;;;5072077;28;20180;-50
2021/12/16 05:21:09;;;;;;;62.35;31.45;;;8.90;99.90;;;;;;5071553;28;20539;-50
2021/12/16 05:26:21;;;;;;;71.50;33.33;;;8.80;99.90;;;;;;5074272;28;20319;-49
2021/12/16 05:28:50;;;;;;;67.82;32.63;;;8.80;99.90;;;;;;5075771;28;20242;-50
2021/12/16 05:31:17;;;;;;;66.78;30.98;;;8.70;99.90;;;;;;5075933;28;20181;-51
2021/12/16 05:33:43;;;;;;;77.03;33.53;;;8.70;99.90;;;;;;5075510;28;20190;-50
2021/12/16 05:36:08;;;;;;;67.00;32.33;;;8.70;99.90;;;;;;5075242;28;20199;-50
2021/12/16 05:38:34;;;;;;;62.92;31.80;;;8.60;99.90;;;;;;5075588;28;20669;-51
2021/12/16 05:41:02;;;;;;;76.13;33.38;;;8.60;99.90;;;;;;5075489;28;20576;-50
2021/12/16 05:43:28;;;;;;;66.15;33.90;;;8.60;99.90;;;;;;5075399;28;20241;-50
2021/12/16 05:45:55;;;;;;;65.20;32.40;;;8.60;99.90;;;;;;5075758;28;20198;-51
2021/12/16 05:48:23;;;;;;;67.65;32.00;;;8.60;99.90;;;;;;5075099;28;20700;-50
2021/12/16 05:50:56;;;;;;;69.72;33.28;;;8.50;99.90;;;;;;5075217;28;20170;-51
2021/12/16 05:53:22;;;;;;;76.22;33.35;;;8.50;99.90;;;;;;5075351;28;20269;-51
2021/12/16 05:55:49;;;;;;;72.50;33.58;;;8.50;99.90;;;;;;5075426;28;20249;-50
2021/12/16 05:58:18;;;;;;;64.85;32.42;;;8.50;99.90;;;;;;5075331;28;20600;-51
2021/12/16 06:00:50;;;;;;;65.53;32.95;;;8.50;99.90;;;;;;5075265;28;20186;-49
2021/12/16 06:03:17;;;;;;;75.00;32.70;;;8.50;99.90;;;;;;5074846;28;20181;-51
2021/12/16 06:05:43;;;;;;;68.60;32.33;;;8.40;99.90;;;;;;5075072;28;20694;-50
2021/12/16 06:08:09;;;;;;;67.00;32.33;;;8.40;99.90;;;;;;5075122;28;20683;-49
2021/12/16 06:13:24;;;;;;;67.00;32.15;;;8.40;99.90;;;;;;5075188;28;20543;-50
2021/12/16 06:29:17;;;;;;;72.32;32.13;;;8.30;99.90;;;;;;5075009;28;20534;-50
2021/12/16 06:31:42;;;;;;;74.65;33.65;;;8.30;99.90;;;;;;5074764;28;20197;-49
2021/12/16 06:34:09;;;;;;;72.13;33.58;;;8.30;99.90;;;;;;5074673;28;20665;-49
2021/12/16 06:36:35;;;;;;;70.88;34.63;;;8.30;99.90;;;;;;5074191;28;20247;-49
2021/12/16 06:39:01;;;;;;;75.10;33.78;;;8.30;99.90;;;;;;5074401;28;20194;-49
2021/12/16 06:41:28;;;;;;;64.70;32.85;;;8.30;99.90;;;;;;5074882;28;20216;-49
2021/12/16 06:43:56;;;;;;;74.65;34.47;;;8.30;99.90;;;;;;5074771;28;20695;-49
2021/12/16 06:46:31;;;;;;;73.28;34.63;;;8.40;99.90;;;;;;5074969;28;20201;-49
2021/12/16 06:48:59;;;;;;;70.45;33.47;;;8.30;99.90;;;;;;5074839;28;20166;-48
2021/12/16 06:51:36;;;;;;;76.05;34.22;;;8.30;99.90;;;;;;5074890;28;20174;-49
2021/12/16 06:54:06;;;;;;;71.15;34.22;;;8.40;99.90;;;;;;5073126;28;20201;-50
2021/12/16 06:56:40;;;;;;;81.00;34.95;;;8.40;99.90;;;;;;5074362;28;20243;-49
2021/12/16 06:59:20;;;;;;;77.60;34.55;;;8.40;99.90;;;;;;5074118;28;20536;-50
2021/12/16 07:01:59;;;;;;;71.75;33.60;;;8.30;99.90;;;;;;5074268;28;20277;-50
2021/12/16 07:04:25;;;;;;;78.10;34.42;;;8.40;99.90;;;;;;5074613;28;20174;-49
2021/12/16 07:06:50;;;;;;;82.03;35.05;;;8.40;99.90;;;;;;5074087;28;20583;-50
2021/12/16 07:09:19;;;;;;;76.03;35.30;;;8.30;99.90;;;;;;5073687;28;20309;-51
2021/12/16 07:11:49;;;;;;;83.28;36.67;;;8.30;99.90;;;;;;5073865;28;20174;-49
2021/12/16 07:14:16;;;;;;;81.90;37.40;;;8.30;99.90;;;;;;5074022;28;20228;-50
2021/12/16 07:16:44;;;;;;;97.25;38.03;;;8.30;99.90;;;;;;5074116;28;20223;-52
2021/12/16 07:19:10;;;;;;;80.88;38.10;;;8.30;99.90;;;;;;5073691;28;20213;-50
2021/12/16 07:21:38;;;;;;;90.50;37.53;;;8.30;99.90;;;;;;5073678;28;20500;-50
2021/12/16 07:24:16;;;;;;;81.15;38.92;;;8.30;99.90;;;;;;5073839;28;20288;-50
2021/12/16 07:26:42;;;;;;;82.15;37.13;;;8.20;99.90;;;;;;5073610;28;20170;-52
2021/12/16 07:29:08;;;;;;;84.07;36.92;;;8.30;99.90;;;;;;5073575;28;20166;-48
2021/12/16 07:31:36;;;;;;;88.15;38.55;;;8.30;99.90;;;;;;5072246;28;20665;-51
2021/12/16 07:34:03;;;;;;;77.72;36.03;;;8.20;99.90;;;;;;5073373;28;20587;-50
2021/12/16 07:36:31;;;;;;;77.70;36.78;;;8.30;99.90;;;;;;5073322;28;20166;-50
2021/12/16 07:38:57;;;;;;;71.20;36.15;;;8.30;99.90;;;;;;5073630;28;20170;-49
2021/12/16 07:41:31;;;;;;;84.40;38.28;;;8.30;99.90;;;;;;5073655;28;20634;-49
2021/12/16 07:44:10;;;;;;;78.80;35.60;;;8.30;99.90;;;;;;5073525;28;20169;-49
2021/12/16 07:46:45;;;;;;;81.15;38.15;;;8.30;99.90;;;;;;5073186;28;20166;-50
2021/12/16 07:49:14;;;;;;;78.82;36.42;;;8.30;99.90;;;;;;5072133;28;20578;-49
2021/12/16 07:51:41;;;;;;;70.30;34.97;;;8.20;99.90;;;;;;5073272;28;20247;-49
2021/12/16 07:54:07;;;;;;;77.50;34.47;;;8.20;99.90;;;;;;5072888;28;20209;-50
2021/12/16 07:56:34;;;;;;;77.20;35.50;;;8.20;99.90;;;;;;5073022;28;20169;-50
2021/12/16 07:58:59;;;;;;;70.75;34.75;;;8.30;99.90;;;;;;5072828;28;20174;-50
2021/12/16 08:01:26;;;;;;;72.93;34.42;;;8.30;99.90;;;;;;5073240;28;20192;-50
2021/12/16 08:03:52;;;;;;;73.30;35.83;;;8.30;99.90;;;;;;5073059;28;20253;-50
2021/12/16 08:06:22;;;;;;;71.93;33.30;;;8.30;99.90;;;;;;5072831;28;20201;-49
2021/12/16 08:08:51;;;;;;;66.13;33.30;;;8.30;99.90;;;;;;5072909;28;20168;-49
2021/12/16 08:11:31;;;;;;;78.10;37.47;;;8.40;99.90;;;;;;5172010;27;20693;-48
2021/12/16 08:13:57;;;;;;;68.05;37.83;;;8.40;99.90;;;;;;5151336;27;20203;-49
2021/12/16 08:16:23;;;;;;;69.70;37.05;;;8.40;99.90;;;;;;5151559;27;20194;-48
2021/12/16 08:18:49;;;;;;;69.43;35.03;;;8.40;99.90;;;;;;5151240;27;20181;-49
2021/12/16 08:21:15;;;;;;;67.38;34.28;;;8.40;99.90;;;;;;5132354;27;20235;-50
2021/12/16 08:23:41;;;;;;;65.53;33.47;;;8.40;99.90;;;;;;5151183;27;20243;-49
2021/12/16 08:26:07;;;;;;;64.65;34.15;;;8.40;99.90;;;;;;5150934;27;20191;-49
2021/12/16 08:28:33;;;;;;;62.78;35.15;;;8.40;99.90;;;;;;5151057;27;20219;-50
2021/12/16 08:30:59;;;;;;;63.33;35.33;;;8.50;99.90;;;;;;5150651;27;20202;-50
2021/12/16 08:33:24;;;;;;;72.57;37.65;;;8.50;99.90;;;;;;5151048;27;20246;-50
2021/12/16 08:35:53;;;;;;;64.88;33.88;;;8.60;99.90;;;;;;5132145;27;20262;-50
2021/12/16 08:38:22;;;;;;;60.30;32.80;;;8.60;99.90;;;;;;5150505;27;20167;-50
2021/12/16 08:40:51;;;;;;;61.55;31.70;;;8.60;99.90;;;;;;5131854;27;20266;-49
2021/12/16 08:43:17;;;;;;;60.33;31.85;;;8.60;99.90;;;;;;5150383;27;20206;-49
2021/12/16 08:45:44;;;;;;;59.00;31.00;;;8.60;99.90;;;;;;5150420;27;20653;-48
2021/12/16 08:48:10;;;;;;;57.97;31.40;;;8.70;99.90;;;;;;5150400;27;20163;-49
2021/12/16 08:50:39;;;;;;;71.75;31.48;;;8.70;99.90;;;;;;5150268;27;20199;-48
2021/12/16 08:53:06;;;;;;;55.75;28.67;;;8.70;99.90;;;;;;5150519;27;20175;-49
2021/12/16 08:55:33;;;;;;;58.50;30.52;;;8.70;99.90;;;;;;5150513;27;20172;-48
2021/12/16 08:58:00;;;;;;;57.50;29.52;;;8.60;99.90;;;;;;5150065;27;20641;-49
2021/12/16 09:00:29;;;;;;;61.88;30.95;;;8.70;99.90;;;;;;5150351;27;20626;-48
2021/12/16 09:02:55;;;;;;;61.55;32.42;;;8.70;99.90;;;;;;5150446;27;20618;-48
2021/12/16 09:05:22;;;;;;;63.00;31.58;;;8.80;99.90;;;;;;5149980;27;20263;-48
2021/12/16 09:07:48;;;;;;;61.70;32.83;;;8.80;99.90;;;;;;5150312;27;20164;-50
2021/12/16 09:10:21;;;;;;;65.20;34.80;;;8.90;99.90;;;;;;5149776;27;20211;-49
2021/12/16 09:13:00;;;;;;;60.45;33.63;;;8.90;99.90;;;;;;5149913;27;20634;-49
2021/12/16 09:15:26;;;;;;;64.07;32.63;;;9.00;99.90;;;;;;5149992;27;20690;-48
2021/12/16 09:17:53;;;;;;;64.88;33.22;;;9.00;99.90;;;;;;5149987;27;20642;-48
2021/12/16 09:20:19;;;;;;;71.70;34.55;;;9.00;99.90;;;;;;5149746;27;20623;-48
2021/12/16 09:22:46;;;;;;;65.22;36.38;;;9.10;99.90;;;;;;5135931;27;20168;-49
2021/12/16 09:25:13;;;;;;;62.92;34.38;;;9.10;99.90;;;;;;5117614;27;20259;-48
2021/12/16 09:27:40;;;;;;;67.32;35.53;;;9.20;99.90;;;;;;5135886;27;20675;-49
2021/12/16 09:30:11;;;;;;;63.97;34.97;;;9.20;99.90;;;;;;5135552;27;20226;-49
2021/12/16 09:32:37;;;;;;;68.50;36.05;;;9.20;99.90;;;;;;5135960;27;20175;-49
2021/12/16 09:35:05;;;;;;;59.22;33.85;;;9.30;99.90;;;;;;5135907;27;20212;-49
2021/12/16 09:37:31;;;;;;;61.75;35.15;;;9.40;99.90;;;;;;5135684;27;20297;-49
2021/12/16 09:39:57;;;;;;;58.95;32.88;;;9.40;99.90;;;;;;5135820;27;20195;-48
2021/12/16 09:42:26;;;;;;;71.50;37.92;;;9.40;99.90;;;;;;5135885;27;20213;-48
2021/12/16 09:44:53;;;;;;;70.18;36.38;;;9.40;99.90;;;;;;5135458;27;20571;-49
2021/12/16 09:47:21;;;;;;;61.83;34.22;;;9.30;99.90;;;;;;5135676;27;20183;-48
2021/12/16 09:49:47;;;;;;;62.72;34.20;;;9.30;99.90;;;;;;5135336;27;20222;-48
2021/12/16 09:52:13;;;;;;;58.20;34.15;;;9.20;99.90;;;;;;5135453;27;20183;-48
2021/12/16 09:54:42;;;;;;;58.60;33.72;;;9.30;99.90;;;;;;5135311;27;20160;-50
2021/12/16 09:57:08;;;;;;;61.47;34.25;;;9.30;99.90;;;;;;5135421;27;20244;-49
2021/12/16 09:59:35;;;;;;;63.28;33.05;;;9.30;99.90;;;;;;5135487;27;20164;-49
2021/12/16 10:02:07;;;;;;;64.10;35.70;;;9.40;99.90;;;;;;5135057;27;20168;-50
2021/12/16 10:04:33;;;;;;;59.83;33.17;;;9.40;99.90;;;;;;5135316;27;20164;-50
2021/12/16 10:07:06;;;;;;;58.58;32.55;;;9.50;99.90;;;;;;5135045;27;20179;-50
2021/12/16 10:09:32;;;;;;;57.70;34.00;;;9.60;99.90;;;;;;5134685;27;20215;-50
2021/12/16 10:12:04;;;;;;;49.83;31.30;;;9.70;99.90;;;;;;5135105;27;20172;-50
2021/12/16 10:14:43;;;;;;;57.38;33.90;;;9.60;99.90;;;;;;5134784;27;20675;-50
2021/12/16 10:19:47;;;;;;;54.40;31.60;;;9.60;99.90;;;;;;5135083;27;20168;-50
2021/12/16 10:22:20;;;;;;;57.85;32.50;;;9.60;99.90;;;;;;5134795;27;20212;-50
2021/12/16 10:24:47;;;;;;;54.70;32.67;;;9.60;99.90;;;;;;5134988;27;20187;-50
2021/12/16 10:27:23;;;;;;;59.35;33.47;;;9.60;99.90;;;;;;5134566;27;20247;-50
2021/12/16 10:29:57;;;;;;;56.47;31.20;;;9.70;99.90;;;;;;5134534;27;20198;-50
2021/12/16 10:32:38;;;;;;;54.05;32.08;;;9.70;99.90;;;;;;5134492;27;20156;-50
2021/12/16 10:35:13;;;;;;;59.42;32.60;;;9.80;99.90;;;;;;5134539;27;20259;-50
2021/12/16 10:37:44;;;;;;;57.75;33.05;;;9.80;99.90;;;;;;5134474;27;20514;-50
2021/12/16 10:40:33;;;;;;;54.10;31.63;;;9.80;99.90;;;;;;5134418;27;20312;-50
2021/12/16 10:43:05;;;;;;;54.10;31.45;;;9.80;99.90;;;;;;5134336;27;20160;-50
2021/12/16 10:45:37;;;;;;;54.67;31.50;;;9.80;99.90;;;;;;5134323;27;20180;-50
2021/12/16 10:48:32;;;;;;;56.45;32.47;;;9.80;99.90;;;;;;5134265;27;20214;-50
2021/12/16 10:51:01;;;;;;;52.40;30.48;;;9.90;99.90;;;;;;5134164;27;20290;-50
2021/12/16 10:53:47;;;;;;;54.88;32.50;;;10.00;99.90;;;;;;5134340;27;20242;-48
2021/12/16 10:56:14;;;;;;;50.80;30.58;;;10.00;99.90;;;;;;5134022;27;20164;-50
2021/12/16 10:58:47;;;;;;;54.95;31.75;;;10.00;99.90;;;;;;5133993;27;20198;-50
2021/12/16 11:01:41;;;;;;;55.38;31.25;;;10.00;99.90;;;;;;5134001;27;20623;-50
2021/12/16 11:04:25;;;;;;;54.50;30.95;;;10.00;99.90;;;;;;5124152;27;20184;-50
2021/12/16 11:07:01;;;;;;;51.67;30.85;;;10.00;99.90;;;;;;5133863;27;20172;-50
2021/12/16 11:09:37;;;;;;;53.00;31.05;;;10.00;99.90;;;;;;5133930;27;20206;-50
2021/12/16 11:12:23;;;;;;;55.40;31.65;;;10.00;99.90;;;;;;5133716;27;20591;-49
2021/12/16 11:15:04;;;;;;;49.97;31.52;;;10.00;99.90;;;;;;5133764;27;20171;-50
2021/12/16 11:17:38;;;;;;;52.63;31.77;;;10.00;99.90;;;;;;5115285;27;20176;-50
2021/12/16 11:20:19;;;;;;;54.88;32.10;;;10.00;99.90;;;;;;5133654;27;20254;-50
2021/12/16 11:22:48;;;;;;;51.63;32.97;;;10.10;99.90;;;;;;5133550;27;20164;-49
2021/12/16 11:25:55;;;;;;;54.17;30.42;;;10.20;99.90;;;;;;5133536;27;20232;-50
2021/12/16 11:28:23;;;;;;;51.45;30.95;;;10.20;99.90;;;;;;5083269;27;20543;-50
2021/12/16 11:30:54;;;;;;;51.20;30.77;;;10.30;99.90;;;;;;5133582;27;20204;-49
2021/12/16 11:33:28;;;;;;;50.25;30.25;;;10.40;99.90;;;;;;5133264;27;20201;-50
2021/12/16 11:36:01;;;;;;;57.88;32.25;;;10.40;99.90;;;;;;5133672;27;20557;-50
2021/12/16 11:38:47;;;;;;;51.05;30.90;;;10.50;99.90;;;;;;5133580;27;20571;-50
2021/12/16 11:41:23;;;;;;;46.92;30.52;;;10.50;99.90;;;;;;5133254;27;20250;-50
2021/12/16 11:43:58;;;;;;;50.83;31.13;;;10.50;99.90;;;;;;5133250;27;20175;-50
2021/12/16 11:46:29;;;;;;;53.83;30.90;;;10.50;99.90;;;;;;5133597;27;20653;-50
2021/12/16 11:48:58;;;;;;;50.35;31.83;;;10.50;99.90;;;;;;5133548;27;20646;-50
2021/12/16 11:51:36;;;;;;;54.22;31.85;;;10.50;99.90;;;;;;5133531;27;20200;-50
2021/12/16 11:54:20;;;;;;;53.33;32.92;;;10.50;99.90;;;;;;5133196;27;20163;-50
2021/12/16 11:56:52;;;;;;;55.00;32.85;;;10.50;99.90;;;;;;5133121;27;20167;-50
2021/12/16 11:59:25;;;;;;;62.63;33.75;;;10.50;99.90;;;;;;5133412;27;20209;-50
2021/12/16 12:01:51;;;;;;;55.65;32.25;;;10.60;99.90;;;;;;5133050;27;20526;-51
2021/12/16 12:04:25;;;;;;;61.17;35.80;;;10.50;99.90;;;;;;5133059;27;20168;-49
2021/12/16 12:06:50;;;;;;;73.63;41.53;;;10.50;99.90;;;;;;5132930;27;20216;-50
2021/12/16 12:09:16;;;;;;;66.80;38.35;;;10.60;99.90;;;;;;5114461;28;20576;-50
2021/12/16 12:11:43;;;;;;;70.85;39.05;;;10.60;99.90;;;;;;5132915;28;20576;-50
2021/12/16 12:14:17;;;;;;;59.20;34.53;;;10.60;99.90;;;;;;5132889;27;20522;-50
2021/12/16 12:16:46;;;;;;;56.10;34.95;;;10.60;99.90;;;;;;5132970;27;20174;-50
2021/12/16 12:19:22;;;;;;;68.10;38.22;;;10.70;99.90;;;;;;5133064;27;20167;-50
2021/12/16 12:22:00;;;;;;;59.15;35.97;;;10.70;99.90;;;;;;5132768;27;20167;-50
2021/12/16 12:24:38;;;;;;;55.58;35.33;;;10.70;99.90;;;;;;5133318;27;20174;-50
2021/12/16 12:27:09;;;;;;;63.45;36.10;;;10.70;99.90;;;;;;5132712;28;20163;-50
2021/12/16 12:29:38;;;;;;;61.58;36.05;;;10.70;99.90;;;;;;5132907;27;20234;-51
2021/12/16 12:32:18;;;;;;;66.60;37.47;;;10.70;99.90;;;;;;5132697;27;20523;-52
2021/12/16 12:34:48;;;;;;;66.00;37.28;;;10.70;99.90;;;;;;5132652;27;20243;-50
2021/12/16 12:37:19;;;;;;;64.85;36.08;;;10.70;99.90;;;;;;5132701;27;20173;-51
2021/12/16 12:39:49;;;;;;;65.22;37.22;;;10.70;99.90;;;;;;5132897;27;20167;-50
2021/12/16 12:42:16;;;;;;;63.10;36.78;;;10.70;99.90;;;;;;5132548;27;20168;-50
2021/12/16 12:44:44;;;;;;;57.60;37.25;;;10.70;99.90;;;;;;5132918;27;20578;-51
2021/12/16 12:47:14;;;;;;;70.00;40.67;;;10.70;99.90;;;;;;5132617;27;20262;-50
2021/12/16 12:49:40;;;;;;;72.18;39.67;;;10.70;99.90;;;;;;5132487;27;20702;-50
2021/12/16 12:52:15;;;;;;;61.08;38.38;;;10.70;99.90;;;;;;5132598;27;20172;-50
2021/12/16 12:54:46;;;;;;;68.32;37.47;;;10.80;99.90;;;;;;5132474;27;20167;-50
2021/12/16 12:57:30;;;;;;;68.03;39.97;;;10.80;99.90;;;;;;5134937;27;20172;-50
2021/12/16 12:59:57;;;;;;;69.75;40.25;;;10.80;99.90;;;;;;5136675;27;20256;-50
2021/12/16 13:02:32;;;;;;;60.88;37.40;;;10.80;99.90;;;;;;5136604;27;20164;-50
2021/12/16 13:05:09;;;;;;;59.83;38.92;;;10.80;99.90;;;;;;5136139;27;20171;-50
2021/12/16 13:07:52;;;;;;;63.25;37.63;;;10.80;99.90;;;;;;5136494;27;20519;-50
2021/12/16 13:10:24;;;;;;;61.55;37.88;;;10.80;99.90;;;;;;5135906;27;20311;-50
2021/12/16 13:13:13;;;;;;;62.50;36.97;;;10.80;99.90;;;;;;5136137;27;20277;-50
2021/12/16 13:15:51;;;;;;;63.40;37.17;;;10.80;99.90;;;;;;5136305;27;20191;-50
2021/12/16 13:26:48;;;;;;;70.95;34.63;;;10.80;99.90;;;;;;5135928;27;20503;-50
2021/12/16 13:29:35;;;;;;;55.17;34.58;;;10.80;99.90;;;;;;5135851;27;20643;-50
2021/12/16 13:32:20;;;;;;;57.42;35.15;;;10.80;99.90;;;;;;5136033;27;20179;-50
2021/12/16 13:34:58;;;;;;;66.18;35.38;;;10.70;99.90;;;;;;5135661;27;20571;-50
2021/12/16 13:37:54;;;;;;;60.70;34.28;;;10.70;99.90;;;;;;5136336;27;20171;-51
2021/12/16 13:40:24;;;;;;;60.65;34.95;;;10.60;99.90;;;;;;5133517;27;20176;-50
2021/12/16 13:43:10;;;;;;;57.55;34.42;;;10.70;99.90;;;;;;5135618;27;20163;-50
2021/12/16 13:45:49;;;;;;;60.85;35.90;;;10.70;99.90;;;;;;5135547;27;20267;-50
2021/12/16 14:07:55;;;;;;;63.50;34.40;;;10.60;99.90;;;;;;5135251;27;20172;-50
2021/12/16 14:10:33;;;;;;;62.63;36.92;;;10.50;99.90;;;;;;5134841;27;20219;-50
2021/12/16 14:14:10;;;;;;;64.18;35.85;;;10.50;99.90;;;;;;5135161;27;20176;-50
2021/12/16 14:17:28;;;;;;;57.85;34.40;;;10.50;99.90;;;;;;5134606;27;20163;-50
2021/12/16 14:43:41;;;;;;;73.38;39.42;;;10.40;99.90;;;;;;5134293;27;20174;-50
2021/12/16 14:46:09;;;;;;;81.00;41.38;;;10.40;99.90;;;;;;5133267;27;20163;-51
2021/12/16 14:48:35;;;;;;;77.65;41.50;;;10.40;99.90;;;;;;5133818;27;20193;-47
2021/12/16 14:51:04;;;;;;;78.70;41.80;;;10.40;99.90;;;;;;5133414;27;20207;-50
2021/12/16 14:53:43;;;;;;;76.97;42.80;;;10.40;99.90;;;;;;5133792;27;20300;-48
2021/12/16 14:56:36;;;;;;;73.97;40.15;;;10.40;99.90;;;;;;5133723;27;20160;-49
2021/12/16 14:59:12;;;;;;;82.63;43.28;;;10.40;99.90;;;;;;5133745;27;20160;-49
2021/12/16 15:01:47;;;;;;;74.80;39.78;;;10.40;99.90;;;;;;5133544;27;20524;-47
2021/12/16 15:04:17;;;;;;;89.47;42.88;;;10.40;99.90;;;;;;5134180;27;20525;-49
2021/12/16 15:06:50;;;;;;;91.03;43.92;;;10.30;99.90;;;;;;5132171;27;20631;-49
2021/12/16 15:09:27;;;;;;;99.90;45.38;;;10.30;99.90;;;;;;5131531;27;20171;-53
2021/12/16 15:12:02;;;;;;;94.78;45.15;;;10.30;99.90;;;;;;5132160;27;20190;-49
2021/12/16 15:40:08;;;;;;;100.40;45.40;;;10.00;99.90;;;;;;5132831;27;20194;-50
2021/12/16 15:42:49;;;;;;;98.78;45.80;;;10.00;99.90;;;;;;5114843;27;20199;-50
2021/12/16 15:45:25;;;;;;;97.55;47.55;;;10.00;99.90;;;;;;5133546;27;20174;-50
2021/12/16 15:48:01;;;;;;;94.22;45.42;;;10.00;99.90;;;;;;5133262;27;20699;-50
2021/12/16 15:50:33;;;;;;;102.20;47.67;;;10.00;99.90;;;;;;5133625;27;20585;-50
2021/12/16 15:53:00;;;;;;;95.57;44.75;;;10.00;99.90;;;;;;5133127;27;20639;-48
2021/12/16 15:55:29;;;;;;;107.78;48.45;;;10.00;99.90;;;;;;5133328;27;20271;-50
2021/12/16 15:58:07;;;;;;;100.63;47.70;;;10.00;99.90;;;;;;5132509;27;20164;-48
2021/12/16 16:00:36;;;;;;;85.03;43.80;;;10.00;99.90;;;;;;5131693;27;20167;-50
2021/12/16 16:03:02;;;;;;;101.05;45.03;;;9.90;99.90;;;;;;5133252;27;20211;-50
2021/12/16 16:05:36;;;;;;;94.28;43.97;;;9.90;99.90;;;;;;5132769;27;20557;-48
2021/12/16 16:08:05;;;;;;;86.15;42.88;;;9.90;99.90;;;;;;5132833;27;20194;-50
2021/12/16 16:10:30;;;;;;;91.85;45.90;;;9.90;99.90;;;;;;5132528;27;20215;-49
2021/12/16 16:13:07;;;;;;;97.22;44.70;;;10.00;99.90;;;;;;5133193;27;20171;-50
2021/12/16 16:15:33;;;;;;;92.28;45.85;;;9.90;99.90;;;;;;5132644;28;20255;-50
2021/12/16 16:18:15;;;;;;;92.80;43.60;;;10.00;99.90;;;;;;5133002;27;20170;-49
2021/12/16 16:20:45;;;;;;;92.93;44.58;;;9.90;99.90;;;;;;5133153;27;20179;-50
2021/12/16 16:23:13;;;;;;;95.60;43.08;;;9.90;99.90;;;;;;5133040;27;20262;-50
2021/12/16 16:25:40;;;;;;;85.53;43.83;;;10.00;99.90;;;;;;5133093;27;20226;-48
2021/12/16 16:28:08;;;;;;;93.00;44.90;;;9.90;99.90;;;;;;5132774;28;20168;-49
2021/12/16 16:30:36;;;;;;;90.20;43.50;;;9.90;99.90;;;;;;5132858;27;20601;-50